Terminal Aerodrome Forecast
Issued by NWS

Current Version | Previous Version | Text Only | Print | Product List | Glossary On
Versions: 1 2 3 4 5 6 7 8 9 10 11 12 13 14 15 16 17 18 19 20 21 22 23 24 25
000
FTUS41 KOKX 220800 AAA
TAFHPN
TAF AMD
KHPN 220830Z 2209/2306 VRB04KT P6SM SKC
     FM221400 24009KT P6SM FEW250
     FM221800 24010G17KT P6SM SCT250
     FM222200 24008KT P6SM SCT050 BKN100
      AMD NOT SKED=

USA.gov is the U.S. government's official web portal to all federal, state and local government web resources and services.